Time;durP1;ratioP1;P1;durP2;ratioP2;P2;SDS_P1;SDS_P2;PMS_P1;PMS_P2;Temp;Humidity;BMP_temperature;BMP_pressure;BME280_temperature;BME280_humidity;BME280_pressure;Samples;Min_cycle;Max_cycle;Signal;HPM_P1;HPM_P2
2023/06/29 00:01:32;;;;;;;5.00;2.20;;;;;;;;;;6174263;28;20196;-63
2023/06/29 00:04:34;;;;;;;2.23;1.90;;;;;;;;;;6184458;28;21579;-62
2023/06/29 00:07:35;;;;;;;4.20;2.47;;;;;;;;;;6170875;28;20250;-63
2023/06/29 00:10:37;;;;;;;2.40;2.20;;;;;;;;;;6181530;28;20323;-62
2023/06/29 00:13:38;;;;;;;2.40;2.20;;;;;;;;;;6177539;28;20193;-62
2023/06/29 00:16:39;;;;;;;2.20;2.00;;;;;;;;;;6173683;28;20203;-62
2023/06/29 00:19:40;;;;;;;3.03;2.33;;;;;;;;;;6192108;28;20200;-62
2023/06/29 00:22:47;;;;;;;2.47;2.27;;;;;;;;;;6172139;28;20200;-62
2023/06/29 00:25:48;;;;;;;2.20;2.00;;;;;;;;;;6172477;28;20217;-62
2023/06/29 00:28:49;;;;;;;3.23;2.40;;;;;;;;;;6178177;28;20199;-61
2023/06/29 00:31:50;;;;;;;4.53;2.40;;;;;;;;;;6179388;28;20232;-62
2023/06/29 00:34:51;;;;;;;2.53;2.33;;;;;;;;;;6175094;28;20200;-62
2023/06/29 00:37:52;;;;;;;2.30;1.90;;;;;;;;;;6159759;28;20192;-62
2023/06/29 00:40:53;;;;;;;2.60;2.40;;;;;;;;;;6158121;28;20195;-62
2023/06/29 00:43:55;;;;;;;5.50;2.67;;;;;;;;;;6180317;28;20207;-63
2023/06/29 00:46:56;;;;;;;3.43;3.13;;;;;;;;;;6180018;28;20286;-62
2023/06/29 00:49:57;;;;;;;3.50;2.93;;;;;;;;;;6177358;28;20199;-62
2023/06/29 00:52:58;;;;;;;3.73;2.30;;;;;;;;;;6185905;28;20206;-62
2023/06/29 00:56:01;;;;;;;3.10;2.60;;;;;;;;;;6172934;28;20202;-62
2023/06/29 00:59:02;;;;;;;2.37;2.17;;;;;;;;;;6187849;28;20190;-63
2023/06/29 02:13:08;;;;;;;4.17;2.53;;;;;;;;;;6158366;28;20268;-62
2023/06/29 02:16:09;;;;;;;2.40;2.20;;;;;;;;;;6132438;28;20186;-63
2023/06/29 02:19:10;;;;;;;6.53;2.73;;;;;;;;;;6139775;28;20197;-62
2023/06/29 02:22:11;;;;;;;3.97;2.70;;;;;;;;;;6127042;28;20193;-62
2023/06/29 02:25:43;;;;;;;3.17;2.40;;;;;;;;;;6150666;28;20200;-63
2023/06/29 02:28:44;;;;;;;4.43;2.87;;;;;;;;;;6132356;28;20273;-62
2023/06/29 02:31:45;;;;;;;2.50;2.30;;;;;;;;;;6136640;28;20226;-62
2023/06/29 02:34:46;;;;;;;2.93;2.47;;;;;;;;;;6147493;28;20198;-62
2023/06/29 02:37:47;;;;;;;2.60;2.40;;;;;;;;;;6118339;28;20200;-62
2023/06/29 02:40:48;;;;;;;2.73;2.50;;;;;;;;;;6111499;28;20197;-61
2023/06/29 03:05:41;;;;;;;5.20;2.70;;;;;;;;;;6130262;28;20190;-62
2023/06/29 03:08:42;;;;;;;4.03;2.70;;;;;;;;;;6149022;28;20189;-62
2023/06/29 03:11:43;;;;;;;3.47;2.57;;;;;;;;;;6127312;29;20226;-63
2023/06/29 03:14:44;;;;;;;5.70;3.27;;;;;;;;;;6137262;28;20279;-63
2023/06/29 03:17:45;;;;;;;2.73;2.53;;;;;;;;;;6164321;28;20197;-63
2023/06/29 03:20:46;;;;;;;4.27;2.93;;;;;;;;;;6176682;28;20246;-63
2023/06/29 03:23:48;;;;;;;3.27;2.50;;;;;;;;;;6189775;28;20219;-62
2023/06/29 03:26:49;;;;;;;3.73;3.23;;;;;;;;;;6179515;28;20193;-63
2023/06/29 03:29:51;;;;;;;4.93;2.33;;;;;;;;;;6180074;28;20195;-62
2023/06/29 03:32:53;;;;;;;4.80;3.53;;;;;;;;;;6175998;28;20187;-63
2023/06/29 03:35:54;;;;;;;3.20;2.57;;;;;;;;;;6160554;28;20192;-62
2023/06/29 03:38:55;;;;;;;3.13;2.83;;;;;;;;;;6173077;28;20192;-62
2023/06/29 03:41:56;;;;;;;3.93;2.90;;;;;;;;;;6187392;28;20191;-61
2023/06/29 03:44:57;;;;;;;3.13;2.83;;;;;;;;;;6171090;28;20192;-62
2023/06/29 03:47:58;;;;;;;3.50;2.90;;;;;;;;;;6178186;28;20206;-62
2023/06/29 03:50:59;;;;;;;3.20;2.90;;;;;;;;;;6165244;28;20240;-62
2023/06/29 03:54:00;;;;;;;4.87;3.10;;;;;;;;;;6184763;28;20192;-62
2023/06/29 03:57:02;;;;;;;3.67;2.93;;;;;;;;;;6166306;28;20414;-61
2023/06/29 04:00:04;;;;;;;3.27;2.97;;;;;;;;;;6179713;28;20201;-62
2023/06/29 04:03:05;;;;;;;4.70;2.90;;;;;;;;;;6162321;28;20199;-62
2023/06/29 04:06:06;;;;;;;5.30;2.97;;;;;;;;;;6189532;28;20187;-63
2023/06/29 04:12:45;;;;;;;3.30;2.80;;;;;;;;;;6190082;28;20218;-63
2023/06/29 04:15:46;;;;;;;3.50;2.90;;;;;;;;;;6182480;28;20259;-64
2023/06/29 04:18:47;;;;;;;5.60;3.20;;;;;;;;;;6183748;28;20280;-65
2023/06/29 04:21:48;;;;;;;6.03;2.97;;;;;;;;;;6174278;28;20326;-62
2023/06/29 04:24:49;;;;;;;4.43;2.90;;;;;;;;;;6177143;28;20208;-62
2023/06/29 04:27:50;;;;;;;4.27;3.13;;;;;;;;;;6182282;28;20350;-62
2023/06/29 04:30:51;;;;;;;2.97;2.67;;;;;;;;;;6177424;28;20322;-63
2023/06/29 04:33:52;;;;;;;3.87;3.10;;;;;;;;;;6178641;28;20275;-62
2023/06/29 04:36:56;;;;;;;4.73;2.97;;;;;;;;;;6165509;28;20231;-61
2023/06/29 04:39:57;;;;;;;4.93;2.70;;;;;;;;;;6182158;28;20197;-61
2023/06/29 04:42:58;;;;;;;3.07;2.77;;;;;;;;;;6178980;28;20188;-62
2023/06/29 04:46:03;;;;;;;3.70;3.03;;;;;;;;;;6182488;28;20192;-62
2023/06/29 04:49:06;;;;;;;4.20;2.80;;;;;;;;;;6191598;28;20189;-62
2023/06/29 04:52:10;;;;;;;5.40;3.33;;;;;;;;;;6182114;28;20219;-62
2023/06/29 04:55:11;;;;;;;4.07;2.97;;;;;;;;;;6182474;28;20291;-62
2023/06/29 04:58:12;;;;;;;3.63;3.10;;;;;;;;;;6174523;28;20199;-62
2023/06/29 05:01:13;;;;;;;4.07;2.90;;;;;;;;;;6176997;28;20207;-62
2023/06/29 05:04:15;;;;;;;5.00;3.07;;;;;;;;;;6179921;28;20216;-62
2023/06/29 05:07:16;;;;;;;3.40;3.10;;;;;;;;;;6183160;28;20258;-62
2023/06/29 05:10:17;;;;;;;4.63;2.90;;;;;;;;;;6177786;28;20321;-61
2023/06/29 05:13:18;;;;;;;3.90;3.60;;;;;;;;;;6182233;28;20192;-61
2023/06/29 05:16:19;;;;;;;3.87;2.87;;;;;;;;;;6190532;28;20200;-61
2023/06/29 05:19:20;;;;;;;4.27;3.43;;;;;;;;;;6185362;28;20195;-62
2023/06/29 05:22:21;;;;;;;6.60;3.67;;;;;;;;;;6170712;28;20228;-62
2023/06/29 05:25:22;;;;;;;5.77;3.50;;;;;;;;;;6184527;28;20191;-62
2023/06/29 05:28:23;;;;;;;5.50;2.93;;;;;;;;;;6179025;28;20223;-62
2023/06/29 05:31:24;;;;;;;5.40;3.20;;;;;;;;;;6179769;28;20217;-61
2023/06/29 05:34:25;;;;;;;5.57;3.60;;;;;;;;;;6175975;28;20192;-62
2023/06/29 05:37:27;;;;;;;4.60;3.33;;;;;;;;;;6180353;28;20190;-62
2023/06/29 05:40:29;;;;;;;5.23;3.40;;;;;;;;;;6180060;28;20233;-62
2023/06/29 05:43:30;;;;;;;5.27;3.40;;;;;;;;;;6181794;28;20200;-61
2023/06/29 05:46:33;;;;;;;3.97;3.10;;;;;;;;;;6189201;28;20287;-61
2023/06/29 05:49:34;;;;;;;4.57;3.47;;;;;;;;;;6180235;28;20217;-61
2023/06/29 05:52:35;;;;;;;5.37;3.10;;;;;;;;;;6183172;28;20227;-62
2023/06/29 05:55:36;;;;;;;4.63;3.63;;;;;;;;;;6198959;28;20207;-61
2023/06/29 05:58:37;;;;;;;3.17;2.87;;;;;;;;;;6178824;28;20275;-61
2023/06/29 06:01:38;;;;;;;5.53;3.37;;;;;;;;;;6171459;28;20211;-61
2023/06/29 06:04:39;;;;;;;5.20;3.57;;;;;;;;;;6172883;28;20198;-62
2023/06/29 06:07:40;;;;;;;4.93;3.27;;;;;;;;;;6176336;28;20200;-60
2023/06/29 06:10:41;;;;;;;4.17;3.50;;;;;;;;;;6183171;28;20223;-61
2023/06/29 06:13:43;;;;;;;3.63;3.33;;;;;;;;;;6170157;28;20236;-61
2023/06/29 06:16:44;;;;;;;5.50;3.43;;;;;;;;;;6184118;28;20203;-61
2023/06/29 06:19:45;;;;;;;4.33;3.00;;;;;;;;;;6194634;28;20191;-62
2023/06/29 06:22:46;;;;;;;6.17;3.63;;;;;;;;;;6194306;28;20196;-61
2023/06/29 06:25:47;;;;;;;5.57;3.37;;;;;;;;;;6170634;28;20331;-60
2023/06/29 06:28:50;;;;;;;6.40;3.77;;;;;;;;;;6168762;28;20201;-61
2023/06/29 06:31:51;;;;;;;4.93;3.80;;;;;;;;;;6175168;28;20232;-61
2023/06/29 06:34:52;;;;;;;4.07;3.40;;;;;;;;;;6178816;28;20250;-61
2023/06/29 06:37:53;;;;;;;4.93;3.50;;;;;;;;;;6193007;28;20199;-61
2023/06/29 06:40:55;;;;;;;3.37;3.07;;;;;;;;;;6178244;28;20192;-62
2023/06/29 06:43:57;;;;;;;3.80;3.20;;;;;;;;;;6187247;28;20270;-61
2023/06/29 06:46:58;;;;;;;5.60;3.47;;;;;;;;;;6179434;28;20240;-61
2023/06/29 06:49:59;;;;;;;5.13;3.77;;;;;;;;;;6183364;28;20200;-61
2023/06/29 06:53:00;;;;;;;5.10;3.40;;;;;;;;;;6187075;28;20192;-62
2023/06/29 06:56:01;;;;;;;3.90;3.60;;;;;;;;;;6182003;28;20202;-63
2023/06/29 06:59:02;;;;;;;6.53;3.10;;;;;;;;;;6165369;28;20196;-62
2023/06/29 07:02:04;;;;;;;5.00;3.30;;;;;;;;;;6174772;28;20222;-61
2023/06/29 07:05:06;;;;;;;4.80;2.97;;;;;;;;;;6185074;28;20291;-62
2023/06/29 07:08:07;;;;;;;3.90;3.00;;;;;;;;;;6183077;28;20199;-62
2023/06/29 07:11:08;;;;;;;3.47;3.10;;;;;;;;;;6170984;28;20211;-62
2023/06/29 07:14:09;;;;;;;5.50;2.83;;;;;;;;;;6182983;28;20239;-62
2023/06/29 07:17:10;;;;;;;5.40;3.40;;;;;;;;;;6174666;28;20223;-62
2023/06/29 07:20:12;;;;;;;3.97;3.13;;;;;;;;;;6180077;28;20187;-62
2023/06/29 07:23:14;;;;;;;4.90;2.83;;;;;;;;;;6187628;28;20188;-62
2023/06/29 07:26:15;;;;;;;4.10;3.10;;;;;;;;;;6188898;28;20195;-62
2023/06/29 07:32:43;;;;;;;3.73;3.10;;;;;;;;;;6188687;28;20255;-62
2023/06/29 07:35:44;;;;;;;4.27;3.03;;;;;;;;;;6181491;28;20187;-62
2023/06/29 07:38:46;;;;;;;6.93;3.37;;;;;;;;;;6181480;28;20282;-62
2023/06/29 07:41:48;;;;;;;6.37;3.73;;;;;;;;;;6184886;28;20192;-62
2023/06/29 07:44:49;;;;;;;10.10;3.13;;;;;;;;;;6178246;28;20188;-62
2023/06/29 07:47:50;;;;;;;4.20;3.13;;;;;;;;;;6184881;28;20221;-61
2023/06/29 07:50:51;;;;;;;4.27;3.00;;;;;;;;;;6186733;28;20220;-62
2023/06/29 07:53:52;;;;;;;5.83;3.60;;;;;;;;;;6202766;28;20197;-62
2023/06/29 07:56:53;;;;;;;5.07;3.60;;;;;;;;;;6186371;28;20188;-62
2023/06/29 07:59:54;;;;;;;8.77;3.40;;;;;;;;;;6185824;28;20225;-62
2023/06/29 08:02:55;;;;;;;4.80;3.30;;;;;;;;;;6171260;28;20268;-62
2023/06/29 08:05:57;;;;;;;5.70;3.30;;;;;;;;;;6197426;28;20202;-64
2023/06/29 08:08:58;;;;;;;4.13;3.23;;;;;;;;;;6182631;28;20200;-62
2023/06/29 08:11:59;;;;;;;5.37;3.50;;;;;;;;;;6182300;28;20215;-63
2023/06/29 08:15:00;;;;;;;5.30;3.30;;;;;;;;;;6176116;28;20236;-63
2023/06/29 08:18:01;;;;;;;5.50;3.10;;;;;;;;;;6187321;28;20187;-63
2023/06/29 08:21:02;;;;;;;5.17;3.40;;;;;;;;;;6193050;28;20199;-62
2023/06/29 08:24:03;;;;;;;4.17;2.97;;;;;;;;;;6199734;28;20262;-63
2023/06/29 08:27:04;;;;;;;3.87;3.20;;;;;;;;;;6172747;28;20247;-63
2023/06/29 08:30:05;;;;;;;6.50;3.27;;;;;;;;;;6183339;28;20282;-63
2023/06/29 08:33:06;;;;;;;4.57;3.27;;;;;;;;;;6194876;28;20247;-63
2023/06/29 08:36:07;;;;;;;4.80;3.17;;;;;;;;;;6182958;28;20293;-63
2023/06/29 08:39:08;;;;;;;5.43;2.67;;;;;;;;;;6175299;28;20216;-63
2023/06/29 08:42:09;;;;;;;3.83;2.60;;;;;;;;;;6197841;28;20188;-63
2023/06/29 08:45:11;;;;;;;5.07;2.23;;;;;;;;;;6182419;28;20267;-63
2023/06/29 08:48:16;;;;;;;2.63;2.43;;;;;;;;;;6193871;28;20191;-63
2023/06/29 08:51:19;;;;;;;3.90;2.60;;;;;;;;;;6193054;28;20219;-63
2023/06/29 08:54:20;;;;;;;4.33;2.57;;;;;;;;;;6200173;28;20191;-63
2023/06/29 08:57:21;;;;;;;6.53;2.77;;;;;;;;;;6170532;28;20239;-64
2023/06/29 09:00:22;;;;;;;3.87;2.43;;;;;;;;;;6173961;28;20204;-64
2023/06/29 09:03:26;;;;;;;3.60;2.60;;;;;;;;;;6172595;28;20340;-63
2023/06/29 09:06:27;;;;;;;3.10;2.10;;;;;;;;;;6163950;28;20204;-62
2023/06/29 09:09:28;;;;;;;2.30;2.10;;;;;;;;;;6198464;28;20195;-62
2023/06/29 09:12:30;;;;;;;3.87;2.13;;;;;;;;;;6170599;28;20215;-63
2023/06/29 09:15:31;;;;;;;3.57;2.20;;;;;;;;;;6177965;28;20238;-62
2023/06/29 09:18:32;;;;;;;3.83;2.50;;;;;;;;;;6160354;28;20193;-62
2023/06/29 09:21:33;;;;;;;2.67;2.10;;;;;;;;;;6188334;28;20188;-63
2023/06/29 09:24:35;;;;;;;2.40;2.20;;;;;;;;;;6166993;28;20243;-63
2023/06/29 09:27:36;;;;;;;2.47;2.27;;;;;;;;;;6190733;28;20203;-63
2023/06/29 09:30:38;;;;;;;2.50;2.23;;;;;;;;;;6188162;28;20216;-63
2023/06/29 09:33:40;;;;;;;2.53;2.33;;;;;;;;;;6173738;28;20204;-63
2023/06/29 09:36:41;;;;;;;4.43;2.33;;;;;;;;;;6172212;28;20228;-63
2023/06/29 09:39:58;;;;;;;4.97;2.23;;;;;;;;;;6168142;28;20216;-63
2023/06/29 09:43:03;;;;;;;2.20;1.90;;;;;;;;;;6174057;28;20193;-63
2023/06/29 09:46:07;;;;;;;4.47;2.20;;;;;;;;;;6188700;28;20272;-64
2023/06/29 09:49:09;;;;;;;2.43;2.23;;;;;;;;;;6180079;28;20231;-63
2023/06/29 09:52:10;;;;;;;4.13;2.77;;;;;;;;;;6184688;28;20224;-65
2023/06/29 09:55:11;;;;;;;2.57;2.23;;;;;;;;;;6186431;28;20190;-65
2023/06/29 09:58:13;;;;;;;2.40;2.20;;;;;;;;;;6191150;28;20223;-64
2023/06/29 10:01:15;;;;;;;3.87;2.07;;;;;;;;;;6189584;28;20196;-64
2023/06/29 10:04:16;;;;;;;2.47;2.13;;;;;;;;;;6190836;28;20204;-64
2023/06/29 10:07:21;;;;;;;3.90;2.10;;;;;;;;;;6162284;28;20219;-65
2023/06/29 10:10:25;;;;;;;3.10;2.07;;;;;;;;;;6172341;28;20196;-65
2023/06/29 10:13:26;;;;;;;2.80;2.50;;;;;;;;;;6174814;28;20220;-65
2023/06/29 10:16:27;;;;;;;3.23;2.13;;;;;;;;;;6180780;28;20187;-66
2023/06/29 10:19:30;;;;;;;4.73;2.30;;;;;;;;;;6175921;28;20197;-66
2023/06/29 10:22:32;;;;;;;2.53;2.27;;;;;;;;;;6189496;28;20196;-66
2023/06/29 10:25:37;;;;;;;3.07;2.27;;;;;;;;;;6165468;28;20204;-66
2023/06/29 10:28:38;;;;;;;2.23;2.03;;;;;;;;;;6178538;28;20200;-66
2023/06/29 10:31:46;;;;;;;2.90;2.33;;;;;;;;;;6160912;28;20223;-65
2023/06/29 10:35:02;;;;;;;3.10;2.10;;;;;;;;;;6175635;28;20196;-65
2023/06/29 10:38:08;;;;;;;2.60;2.40;;;;;;;;;;6198122;28;20204;-65
2023/06/29 10:41:25;;;;;;;3.47;2.37;;;;;;;;;;6184634;28;20269;-65
2023/06/29 10:44:34;;;;;;;4.17;2.50;;;;;;;;;;6195614;28;20205;-65
2023/06/29 10:47:39;;;;;;;2.97;2.30;;;;;;;;;;6195434;28;20219;-64
2023/06/29 10:50:42;;;;;;;2.60;2.37;;;;;;;;;;6183395;28;20251;-65
2023/06/29 10:53:47;;;;;;;4.53;2.43;;;;;;;;;;6189457;28;20191;-65
2023/06/29 10:56:58;;;;;;;2.80;2.43;;;;;;;;;;6200333;28;20235;-65
2023/06/29 10:59:59;;;;;;;5.17;2.70;;;;;;;;;;6177060;28;20192;-66
2023/06/29 11:03:00;;;;;;;2.90;2.30;;;;;;;;;;6186994;28;20196;-65
2023/06/29 11:06:02;;;;;;;2.90;2.67;;;;;;;;;;6189610;28;20203;-64
2023/06/29 11:09:13;;;;;;;5.27;2.23;;;;;;;;;;6196356;28;20206;-63
2023/06/29 11:12:16;;;;;;;2.30;2.10;;;;;;;;;;6187547;28;20212;-63
2023/06/29 11:15:18;;;;;;;3.57;2.03;;;;;;;;;;6173538;28;20224;-64
2023/06/29 11:18:19;;;;;;;3.80;2.90;;;;;;;;;;6172890;28;20196;-62
2023/06/29 11:21:21;;;;;;;3.53;2.17;;;;;;;;;;6191365;28;20284;-61
2023/06/29 11:24:22;;;;;;;2.93;2.40;;;;;;;;;;6173482;28;20224;-62
2023/06/29 11:27:23;;;;;;;2.40;2.20;;;;;;;;;;6174248;28;20204;-61
2023/06/29 11:30:24;;;;;;;6.57;2.27;;;;;;;;;;6170702;28;20194;-61
2023/06/29 11:33:25;;;;;;;4.10;1.90;;;;;;;;;;6184328;28;20283;-61
2023/06/29 11:36:36;;;;;;;4.00;2.43;;;;;;;;;;6159047;28;20192;-61
2023/06/29 11:39:37;;;;;;;2.30;2.10;;;;;;;;;;6195137;28;20196;-61
2023/06/29 11:42:38;;;;;;;2.40;2.20;;;;;;;;;;6175078;28;20197;-62
2023/06/29 11:45:39;;;;;;;6.00;2.63;;;;;;;;;;6163908;28;20200;-62
2023/06/29 11:48:40;;;;;;;2.60;2.17;;;;;;;;;;6185528;28;20212;-62
2023/06/29 11:51:42;;;;;;;2.57;2.03;;;;;;;;;;6164308;28;20228;-62
2023/06/29 11:54:43;;;;;;;3.77;2.47;;;;;;;;;;6185084;28;20195;-62
2023/06/29 11:57:50;;;;;;;2.37;1.90;;;;;;;;;;6169141;28;20204;-61
2023/06/29 12:00:57;;;;;;;2.77;2.10;;;;;;;;;;6194537;28;20219;-62
2023/06/29 12:03:58;;;;;;;2.27;1.90;;;;;;;;;;6181825;28;20192;-62
2023/06/29 12:06:59;;;;;;;5.43;2.13;;;;;;;;;;6183993;28;20203;-62
2023/06/29 12:10:01;;;;;;;2.80;2.27;;;;;;;;;;6175560;28;20199;-62
2023/06/29 12:13:03;;;;;;;3.67;2.07;;;;;;;;;;6181387;28;20205;-62
2023/06/29 12:16:04;;;;;;;3.23;2.30;;;;;;;;;;6176765;28;20242;-64
2023/06/29 12:19:12;;;;;;;2.17;1.93;;;;;;;;;;6159482;28;20219;-61
2023/06/29 12:22:15;;;;;;;3.80;2.30;;;;;;;;;;6171311;28;20193;-62
2023/06/29 12:25:17;;;;;;;4.27;2.27;;;;;;;;;;6172458;28;20203;-62
2023/06/29 12:28:18;;;;;;;4.17;2.07;;;;;;;;;;6186930;28;20212;-61
2023/06/29 12:31:24;;;;;;;3.37;2.10;;;;;;;;;;6191190;28;20210;-62
2023/06/29 12:34:25;;;;;;;2.93;1.87;;;;;;;;;;6183174;28;20219;-62
2023/06/29 12:37:26;;;;;;;2.70;1.93;;;;;;;;;;6174803;28;20283;-63
2023/06/29 12:40:27;;;;;;;2.37;1.80;;;;;;;;;;6178460;28;20188;-64
2023/06/29 12:43:28;;;;;;;3.13;2.00;;;;;;;;;;6168183;28;20191;-62
2023/06/29 12:46:30;;;;;;;3.30;2.07;;;;;;;;;;6160801;28;20204;-63
2023/06/29 12:49:31;;;;;;;3.77;2.00;;;;;;;;;;6160037;28;20200;-62
2023/06/29 12:52:32;;;;;;;4.07;2.03;;;;;;;;;;6163607;28;20227;-63
2023/06/29 12:55:33;;;;;;;1.90;1.70;;;;;;;;;;6180020;28;20298;-62
2023/06/29 12:58:34;;;;;;;3.00;2.10;;;;;;;;;;6178712;28;20199;-63
2023/06/29 13:01:35;;;;;;;2.20;2.00;;;;;;;;;;6167277;28;20211;-63
2023/06/29 13:04:38;;;;;;;4.00;2.00;;;;;;;;;;6189188;28;20223;-63
2023/06/29 13:07:40;;;;;;;4.10;2.27;;;;;;;;;;6179271;28;20199;-63
2023/06/29 13:10:41;;;;;;;6.03;1.93;;;;;;;;;;6178066;28;20216;-62
2023/06/29 13:13:41;;;;;;;5.10;2.20;;;19.70;55.00;;;;;;6162759;28;20244;-62
2023/06/29 13:16:42;;;;;;;3.20;2.10;;;;;;;;;;6173304;28;20223;-62
2023/06/29 13:19:46;;;;;;;5.17;2.10;;;33.10;34.80;;;;;;6178342;28;20199;-62
2023/06/29 13:22:47;;;;;;;2.10;1.93;;;;;;;;;;6191703;28;20211;-63
2023/06/29 13:25:48;;;;;;;2.00;1.80;;;33.50;35.40;;;;;;6180675;28;20195;-63
2023/06/29 13:28:49;;;;;;;5.90;5.20;;;;;;;;;;6172177;28;20258;-62
2023/06/29 13:31:49;;;;;;;4.87;4.30;;;34.40;33.30;;;;;;6173566;28;20231;-62
2023/06/29 13:34:50;;;;;;;2.33;1.97;;;34.50;34.90;;;;;;6175518;28;20192;-63
2023/06/29 13:37:51;;;;;;;1.70;1.60;;;;;;;;;;6175412;28;20274;-63
2023/06/29 13:40:52;;;;;;;2.50;1.67;;;;;;;;;;6185145;28;20202;-63
2023/06/29 13:43:53;;;;;;;2.83;1.87;;;;;;;;;;6184216;28;20250;-62
2023/06/29 13:46:54;;;;;;;1.77;1.67;;;;;;;;;;6188249;28;20203;-62
2023/06/29 13:49:55;;;;;;;3.57;1.73;;;;;;;;;;6169074;28;20287;-62
2023/06/29 13:52:56;;;;;;;2.07;1.87;;;;;;;;;;6168748;28;20227;-61
2023/06/29 13:55:58;;;;;;;2.97;1.90;;;;;;;;;;6164786;28;20213;-62
2023/06/29 13:59:03;;;;;;;2.30;2.10;;;35.00;33.80;;;;;;6176577;28;20207;-62
2023/06/29 14:02:04;;;;;;;3.23;2.30;;;;;;;;;;6162180;28;20196;-62
2023/06/29 14:05:05;;;;;;;2.77;2.30;;;;;;;;;;6180162;28;20196;-62
2023/06/29 14:08:06;;;;;;;2.73;2.10;;;;;;;;;;6163709;28;20220;-62
2023/06/29 14:11:07;;;;;;;3.23;2.03;;;;;;;;;;6170491;28;20223;-62
2023/06/29 14:14:08;;;;;;;1.97;1.77;;;;;;;;;;6168697;28;20243;-62
2023/06/29 14:17:10;;;;;;;3.03;2.07;;;;;;;;;;6178821;28;20198;-63
2023/06/29 14:20:11;;;;;;;2.43;2.00;;;;;;;;;;6160309;28;20291;-63
2023/06/29 14:23:12;;;;;;;4.17;2.10;;;;;;;;;;6172570;28;20200;-63
2023/06/29 14:26:13;;;;;;;5.87;2.10;;;;;;;;;;6172446;28;20223;-64
2023/06/29 14:29:14;;;;;;;3.60;2.30;;;;;;;;;;6185569;28;20196;-63
2023/06/29 14:32:15;;;;;;;2.63;2.13;;;;;;;;;;6183168;28;20229;-63
2023/06/29 14:35:17;;;;;;;4.43;1.87;;;;;;;;;;6175969;28;20219;-63
2023/06/29 14:38:18;;;;;;;3.57;1.83;;;;;;;;;;6193813;28;20226;-63
2023/06/29 14:41:19;;;;;;;2.23;1.97;;;;;;;;;;6197871;28;20195;-64
2023/06/29 14:44:20;;;;;;;3.30;2.03;;;;;;;;;;6193187;28;20196;-63
2023/06/29 14:47:21;;;;;;;4.13;2.40;;;;;;;;;;6188288;28;20257;-63
2023/06/29 14:50:22;;;;;;;3.03;2.17;;;;;;;;;;6178009;28;20196;-63
2023/06/29 14:53:24;;;;;;;3.47;2.37;;;;;;;;;;6168956;28;20229;-63
2023/06/29 14:56:25;;;;;;;2.20;2.00;;;;;;;;;;6195663;28;20193;-62
2023/06/29 14:59:26;;;;;;;3.17;2.03;;;;;;;;;;6173773;28;20530;-63
2023/06/29 15:02:27;;;;;;;3.57;2.10;;;;;;;;;;6188810;28;20226;-63
2023/06/29 15:05:28;;;;;;;2.30;2.10;;;;;;;;;;6172536;28;20201;-62
2023/06/29 15:08:29;;;;;;;2.30;2.10;;;;;;;;;;6184033;28;20232;-62
2023/06/29 15:11:30;;;;;;;2.00;1.80;;;;;;;;;;6190576;28;20230;-62
2023/06/29 15:14:31;;;;;;;2.87;2.00;;;;;;;;;;6176715;28;20232;-61
2023/06/29 15:17:33;;;;;;;2.83;2.27;;;;;;;;;;6188919;28;20188;-61
2023/06/29 15:20:34;;;;;;;2.73;2.50;;;;;;;;;;6196653;28;20199;-61
2023/06/29 15:23:35;;;;;;;2.40;2.03;;;;;;;;;;6185698;28;20206;-62
2023/06/29 15:26:36;;;;;;;2.77;2.07;;;;;;;;;;6173860;28;20228;-62
2023/06/29 15:29:37;;;;;;;2.40;2.20;;;;;;;;;;6176234;28;20201;-62
2023/06/29 15:32:38;;;;;;;3.17;2.07;;;;;;;;;;6175950;28;20216;-63
2023/06/29 15:35:39;;;;;;;3.47;2.17;;;;;;;;;;6181905;28;20192;-62
2023/06/29 15:38:40;;;;;;;3.03;1.90;;;;;;;;;;6179769;28;20251;-62
2023/06/29 15:41:42;;;;;;;2.63;2.20;;;;;;;;;;6171940;28;20199;-62
2023/06/29 15:44:43;;;;;;;1.93;1.83;;;;;;;;;;6181312;28;20195;-62
2023/06/29 15:47:45;;;;;;;4.53;2.30;;;;;;;;;;6179216;28;20193;-62
2023/06/29 15:50:46;;;;;;;3.13;2.10;;;;;;;;;;6192790;28;20226;-62
2023/06/29 15:53:47;;;;;;;2.87;2.10;;;;;;;;;;6199846;28;20188;-63
2023/06/29 15:56:48;;;;;;;2.40;2.20;;;;;;;;;;6186607;28;20199;-63
2023/06/29 15:59:49;;;;;;;2.93;2.10;;;;;;;;;;6190835;28;20193;-63
2023/06/29 16:02:50;;;;;;;2.43;2.23;;;;;;;;;;6169283;28;20276;-62
2023/06/29 16:05:52;;;;;;;2.30;2.10;;;;;;;;;;6191466;28;20267;-63
2023/06/29 16:08:53;;;;;;;2.17;1.80;;;;;;;;;;6186448;28;20256;-63
2023/06/29 16:11:54;;;;;;;2.60;2.20;;;;;;;;;;6187238;28;20274;-63
2023/06/29 16:14:58;;;;;;;2.30;2.10;;;;;;;;;;6184559;28;20342;-63
2023/06/29 16:17:59;;;;;;;3.63;2.00;;;;;;;;;;6175140;28;20226;-63
2023/06/29 16:21:00;;;;;;;2.50;2.27;;;;;;;;;;6178235;28;20295;-63
2023/06/29 16:24:01;;;;;;;3.70;2.50;;;;;;;;;;6163000;28;20256;-62
2023/06/29 16:27:03;;;;;;;2.53;2.33;;;;;;;;;;6173933;28;20203;-62
2023/06/29 16:30:04;;;;;;;3.00;2.50;;;;;;;;;;6182737;28;20211;-62
2023/06/29 16:33:05;;;;;;;4.13;2.00;;;;;;;;;;6184134;28;20259;-64
2023/06/29 16:36:06;;;;;;;4.33;2.40;;;;;;;;;;6165200;28;20196;-63
2023/06/29 16:39:07;;;;;;;3.60;2.10;;;;;;;;;;6178169;28;20198;-62
2023/06/29 16:42:09;;;;;;;2.37;2.10;;;;;;;;;;6180441;28;20353;-62
2023/06/29 16:45:10;;;;;;;2.97;2.40;;;;;;;;;;6163316;28;20200;-62
2023/06/29 16:48:11;;;;;;;3.50;2.27;;;;;;;;;;6170910;28;20230;-62
2023/06/29 16:51:12;;;;;;;2.43;2.23;;;;;;;;;;6186308;28;20215;-62
2023/06/29 16:54:13;;;;;;;2.83;2.30;;;;;;;;;;6197196;28;20195;-62
2023/06/29 16:57:14;;;;;;;4.27;2.60;;;;;;;;;;6177452;28;20196;-62
2023/06/29 17:00:16;;;;;;;2.20;2.00;;;;;;;;;;6171754;28;20188;-62
2023/06/29 17:03:17;;;;;;;2.70;2.50;;;;;;;;;;6191020;28;20243;-62
2023/06/29 17:06:18;;;;;;;2.33;2.00;;;;;;;;;;6171080;28;20214;-63
2023/06/29 17:09:19;;;;;;;3.13;2.53;;;;;;;;;;6194847;28;20195;-62
2023/06/29 17:12:20;;;;;;;3.23;2.53;;;;;;;;;;6177384;28;20244;-62
2023/06/29 17:15:23;;;;;;;3.13;2.30;;;;;;;;;;6167447;28;20286;-62
2023/06/29 17:18:24;;;;;;;2.30;2.10;;;;;;;;;;6185095;28;20196;-62
2023/06/29 17:21:26;;;;;;;3.87;2.50;;;;;;;;;;6182217;28;20210;-61
2023/06/29 17:24:27;;;;;;;2.37;2.17;;;;;;;;;;6181896;28;20286;-62
2023/06/29 17:27:28;;;;;;;3.00;2.40;;;;;;;;;;6188797;28;20287;-62
2023/06/29 17:30:29;;;;;;;2.73;2.10;;;;;;;;;;6185033;28;20195;-62
2023/06/29 17:33:30;;;;;;;6.63;2.60;;;;;;;;;;6177858;28;20283;-62
2023/06/29 17:36:31;;;;;;;2.40;2.20;;;;;;;;;;6183810;28;20283;-61
2023/06/29 17:39:32;;;;;;;2.00;1.80;;;;;;;;;;6187605;28;20187;-62
2023/06/29 17:42:33;;;;;;;4.27;2.30;;;;;;;;;;6184491;28;20197;-62
2023/06/29 17:45:35;;;;;;;2.87;2.30;;;;;;;;;;6201315;28;20203;-63
2023/06/29 17:48:36;;;;;;;3.07;2.27;;;;;;;;;;6190700;28;20230;-62
2023/06/29 17:51:37;;;;;;;3.30;2.10;;;;;;;;;;6182736;28;20315;-64
2023/06/29 17:54:39;;;;;;;2.60;2.40;;;;;;;;;;6196709;28;20191;-63
2023/06/29 17:57:40;;;;;;;2.80;2.60;;;;;;;;;;6186549;28;20204;-62
2023/06/29 18:00:42;;;;;;;2.37;2.17;;;;;;;;;;6193685;28;20219;-63
2023/06/29 18:03:43;;;;;;;2.37;2.10;;;;;;;;;;6178737;28;20224;-62
2023/06/29 18:06:44;;;;;;;3.50;2.23;;;;;;;;;;6182100;28;20199;-63
2023/06/29 18:09:46;;;;;;;4.50;2.80;;;;;;;;;;6174458;28;20211;-61
2023/06/29 18:12:47;;;;;;;3.20;2.40;;;;;;;;;;6184754;28;20310;-61
2023/06/29 18:15:48;;;;;;;2.43;2.03;;;;;;;;;;6183515;28;20243;-62
2023/06/29 18:18:49;;;;;;;3.03;2.43;;;;;;;;;;6164921;28;20194;-61
2023/06/29 18:21:50;;;;;;;2.40;2.20;;;;;;;;;;6176914;28;20198;-61
2023/06/29 18:24:52;;;;;;;2.67;2.47;;;;;;;;;;6172305;28;20251;-61
2023/06/29 18:27:53;;;;;;;3.10;2.50;;;;;;;;;;6187185;28;20200;-61
2023/06/29 18:30:54;;;;;;;3.07;2.10;;;;;;;;;;6190739;28;20230;-62
2023/06/29 18:33:56;;;;;;;3.00;2.67;;;;;;;;;;6179583;28;20212;-62
2023/06/29 18:36:57;;;;;;;3.10;2.40;;;;;;;;;;6163835;28;20196;-61
2023/06/29 18:39:58;;;;;;;2.90;2.70;;;;;;;;;;6177418;28;20196;-61
2023/06/29 18:43:00;;;;;;;3.10;2.40;;;;;;;;;;6195852;28;20195;-63
2023/06/29 18:46:01;;;;;;;3.13;2.20;;;;;;;;;;6178205;28;20193;-62
2023/06/29 18:49:04;;;;;;;2.90;2.50;;;;;;;;;;6181611;28;20224;-62
2023/06/29 18:52:06;;;;;;;3.00;2.70;;;;;;;;;;6177934;28;20479;-61
2023/06/29 18:55:07;;;;;;;3.40;2.50;;;;;;;;;;6208092;28;20242;-61
2023/06/29 18:58:08;;;;;;;5.37;2.40;;;;;;;;;;6182189;28;20282;-61
2023/06/29 19:01:09;;;;;;;4.07;2.50;;;;;;;;;;6177839;28;20286;-60
2023/06/29 19:04:10;;;;;;;3.40;2.40;;;;;;;;;;6172177;28;20230;-60
2023/06/29 19:07:14;;;;;;;2.87;2.60;;;;;;;;;;6185803;28;20242;-60
2023/06/29 19:10:15;;;;;;;3.10;2.80;;;;;;;;;;6185907;28;20208;-61
2023/06/29 19:13:17;;;;;;;3.83;2.40;;;;;;;;;;6166072;28;20291;-61
2023/06/29 19:16:18;;;;;;;2.70;2.50;;;;;;;;;;6184494;28;20198;-60
2023/06/29 19:19:19;;;;;;;2.50;2.30;;;;;;;;;;6179126;28;20200;-60
2023/06/29 19:22:20;;;;;;;2.60;2.40;;;;;;;;;;6184248;28;20195;-61
2023/06/29 19:25:21;;;;;;;3.90;2.40;;;;;;;;;;6177624;28;20228;-60
2023/06/29 19:28:22;;;;;;;3.03;2.70;;;;;;;;;;6185136;28;20206;-61
2023/06/29 19:31:24;;;;;;;2.80;2.30;;;;;;;;;;6209984;28;20211;-60
2023/06/29 19:34:25;;;;;;;5.50;2.80;;;;;;;;;;6194940;28;20223;-60
2023/06/29 19:37:29;;;;;;;2.90;2.70;;;;;;;;;;6178808;28;20203;-61
2023/06/29 19:40:30;;;;;;;3.97;2.70;;;;;;;;;;6196541;28;20189;-61
2023/06/29 19:43:31;;;;;;;3.00;2.50;;;;;;;;;;6187021;28;20204;-61
2023/06/29 19:46:32;;;;;;;2.70;2.40;;;;;;;;;;6169361;28;20184;-61